Time;durP1;ratioP1;P1;durP2;ratioP2;P2;SDS_P1;SDS_P2;PMS_P1;PMS_P2;Temp;Humidity;BMP_temperature;BMP_pressure;BME280_temperature;BME280_humidity;BME280_pressure;Samples;Min_cycle;Max_cycle;Signal;HPM_P1;HPM_P2
2022/01/13 00:01:18;;;;;;;124.87;30.33;;;5.40;99.90;;;;;;5075585;28;20032;-78
2022/01/13 00:03:45;;;;;;;126.63;30.70;;;5.50;99.90;;;;;;5060322;28;20535;-78
2022/01/13 00:06:10;;;;;;;125.10;30.70;;;5.50;99.90;;;;;;5025866;28;20059;-78
2022/01/13 00:08:36;;;;;;;144.03;33.23;;;5.50;99.90;;;;;;5044622;28;20067;-77
2022/01/13 00:11:02;;;;;;;144.30;34.40;;;5.50;99.90;;;;;;5044093;28;20048;-77
2022/01/13 00:13:33;;;;;;;147.70;33.30;;;5.50;99.90;;;;;;5058707;28;20052;-77
2022/01/13 00:18:51;;;;;;;129.80;31.80;;;5.50;99.90;;;;;;5074492;28;20067;-77
2022/01/13 00:21:30;;;;;;;136.00;32.97;;;5.50;99.90;;;;;;5044657;28;20135;-78
2022/01/13 00:23:59;;;;;;;120.90;31.33;;;5.50;99.90;;;;;;5037814;28;20041;-78
2022/01/13 00:26:27;;;;;;;158.17;35.47;;;5.40;99.90;;;;;;5075468;28;20160;-78
2022/01/13 00:28:55;;;;;;;159.40;35.57;;;5.50;99.90;;;;;;5059142;28;20045;-77
2022/01/13 00:31:31;;;;;;;191.80;38.03;;;5.40;99.90;;;;;;5042160;28;20531;-77
2022/01/13 00:33:59;;;;;;;135.50;32.10;;;5.50;99.90;;;;;;5084904;28;20080;-77
2022/01/13 00:36:28;;;;;;;130.70;33.10;;;5.40;99.90;;;;;;5073148;28;20048;-77
2022/01/13 00:38:54;;;;;;;128.70;31.77;;;5.40;99.90;;;;;;5057051;28;20075;-78
2022/01/13 00:41:21;;;;;;;175.33;35.03;;;5.40;99.90;;;;;;5025275;28;20072;-78
2022/01/13 00:43:48;;;;;;;120.13;30.87;;;5.40;99.90;;;;;;5058171;28;20052;-78
2022/01/13 00:46:21;;;;;;;118.20;28.93;;;5.40;99.90;;;;;;5058971;28;20102;-77
2022/01/13 00:48:47;;;;;;;111.10;26.47;;;5.40;99.90;;;;;;5059266;28;20048;-78
2022/01/13 00:51:13;;;;;;;141.60;29.23;;;5.40;99.90;;;;;;5058706;28;20036;-78
2022/01/13 00:53:39;;;;;;;118.27;26.13;;;5.40;99.90;;;;;;5077938;28;20549;-77
2022/01/13 00:56:05;;;;;;;113.17;27.07;;;5.40;99.90;;;;;;5042048;28;20061;-78
2022/01/13 00:58:34;;;;;;;93.50;24.80;;;5.40;99.90;;;;;;5042651;28;20048;-78
2022/01/13 01:01:01;;;;;;;123.50;27.43;;;5.40;99.90;;;;;;5074631;28;20070;-77
2022/01/13 01:03:28;;;;;;;87.50;24.37;;;5.40;99.90;;;;;;5058243;28;20049;-80
2022/01/13 01:05:55;;;;;;;88.10;23.80;;;5.40;99.90;;;;;;5058055;28;20053;-78
2022/01/13 01:08:22;;;;;;;112.33;25.60;;;5.40;99.90;;;;;;5039967;28;20076;-78
2022/01/13 01:10:49;;;;;;;103.23;25.03;;;5.40;99.90;;;;;;5058539;28;20162;-77
2022/01/13 01:13:20;;;;;;;109.10;27.50;;;5.50;99.90;;;;;;5058314;28;20045;-78
2022/01/13 01:15:50;;;;;;;80.83;21.77;;;5.50;99.90;;;;;;5027117;28;20094;-78
2022/01/13 01:21:15;;;;;;;85.30;22.67;;;5.50;99.90;;;;;;5101393;28;20045;-78
2022/01/13 01:26:29;;;;;;;74.23;21.77;;;5.40;99.90;;;;;;5101469;28;20119;-79
2022/01/13 01:31:35;;;;;;;67.43;21.17;;;5.50;99.90;;;;;;5074563;28;20094;-78
2022/01/13 01:34:20;;;;;;;66.27;20.60;;;5.50;99.90;;;;;;5042397;28;20047;-78
2022/01/13 01:36:46;;;;;;;66.07;21.50;;;5.50;99.90;;;;;;5075009;28;20033;-78
2022/01/13 01:39:12;;;;;;;71.77;20.53;;;5.50;99.90;;;;;;5058057;28;20043;-78
2022/01/13 01:41:44;;;;;;;64.20;19.07;;;5.40;99.90;;;;;;5025590;28;20040;-78
2022/01/13 01:44:11;;;;;;;;;;;5.50;99.90;;;;;;5082093;28;20115;-78
2022/01/13 01:46:39;;;;;;;58.83;17.17;;;5.40;99.90;;;;;;5075158;28;20489;-78
2022/01/13 01:49:15;;;;;;;58.73;17.23;;;5.40;99.90;;;;;;5058314;28;20449;-77
2022/01/13 01:51:43;;;;;;;59.90;17.47;;;5.40;99.90;;;;;;5044157;28;20881;-77
2022/01/13 01:54:09;;;;;;;64.87;17.50;;;5.30;99.90;;;;;;5078677;28;20059;-78
2022/01/13 01:56:36;;;;;;;61.33;17.83;;;5.40;99.90;;;;;;5043938;28;20032;-78
2022/01/13 01:59:04;;;;;;;72.47;20.63;;;5.40;99.90;;;;;;5078210;28;20052;-78
2022/01/13 02:01:30;;;;;;;61.63;17.80;;;5.50;99.90;;;;;;5039484;28;20055;-78
2022/01/13 02:03:55;;;;;;;77.10;19.53;;;5.40;99.90;;;;;;5061702;28;20055;-78
2022/01/13 02:06:22;;;;;;;91.87;21.47;;;5.40;99.90;;;;;;5041968;28;20052;-77
2022/01/13 02:08:48;;;;;;;78.53;20.10;;;5.40;99.90;;;;;;5039552;28;20605;-78
2022/01/13 02:11:14;;;;;;;69.20;19.37;;;5.40;99.90;;;;;;5026173;28;20167;-77
2022/01/13 02:13:47;;;;;;;73.00;20.03;;;5.40;99.90;;;;;;5038848;28;20049;-78
2022/01/13 02:16:55;;;;;;;93.50;22.73;;;5.40;99.90;;;;;;5076135;28;20080;-78
2022/01/13 02:19:02;;;;;;;75.47;21.43;;;5.40;99.90;;;;;;5098955;28;20052;-77
2022/01/13 02:21:28;;;;;;;73.20;20.87;;;5.40;99.90;;;;;;5044739;28;20045;-78
2022/01/13 02:23:55;;;;;;;70.43;21.77;;;5.40;99.90;;;;;;5043474;28;20083;-78
2022/01/13 02:26:21;;;;;;;82.77;22.47;;;5.40;99.90;;;;;;5077403;28;20045;-79
2022/01/13 02:28:51;;;;;;;69.97;20.37;;;5.50;99.90;;;;;;5044554;28;20044;-78
2022/01/13 02:31:18;;;;;;;77.90;19.77;;;5.50;99.90;;;;;;5039338;28;20059;-78
2022/01/13 02:33:44;;;;;;;69.50;22.27;;;5.50;99.90;;;;;;5078444;28;20044;-78
2022/01/13 02:36:10;;;;;;;67.03;20.80;;;5.50;99.90;;;;;;5038608;28;20087;-78
2022/01/13 02:38:36;;;;;;;75.43;23.23;;;5.50;99.90;;;;;;5061305;28;20044;-79
2022/01/13 02:41:03;;;;;;;70.37;21.10;;;5.50;99.90;;;;;;5041787;28;20076;-78
2022/01/13 02:43:30;;;;;;;69.83;21.87;;;5.50;99.90;;;;;;5041488;28;20059;-78
2022/01/13 02:46:18;;;;;;;67.30;19.83;;;5.50;99.90;;;;;;5045100;28;20040;-78
2022/01/13 02:48:45;;;;;;;58.63;19.30;;;5.50;99.90;;;;;;5076045;28;20102;-79
2022/01/13 02:51:11;;;;;;;56.67;17.83;;;5.50;99.90;;;;;;5061945;28;20059;-78
2022/01/13 02:53:36;;;;;;;58.23;18.37;;;5.40;99.90;;;;;;5062614;28;20124;-78
2022/01/13 02:56:06;;;;;;;64.67;21.07;;;5.40;99.90;;;;;;5043959;28;20044;-78
2022/01/13 02:58:34;;;;;;;72.20;21.17;;;5.40;99.90;;;;;;5058326;28;20040;-78
2022/01/13 03:01:01;;;;;;;64.27;21.07;;;5.40;99.90;;;;;;5039871;28;20052;-78
2022/01/13 03:03:29;;;;;;;65.63;21.97;;;5.40;99.90;;;;;;5043664;28;20609;-79
2022/01/13 03:05:54;;;;;;;58.73;21.30;;;5.40;99.90;;;;;;5060858;28;20054;-78
2022/01/13 03:08:20;;;;;;;73.30;21.00;;;5.40;99.90;;;;;;5060260;28;20127;-78
2022/01/13 03:10:46;;;;;;;72.47;22.30;;;5.40;99.90;;;;;;5026726;28;20033;-78
2022/01/13 03:13:12;;;;;;;62.90;20.17;;;5.40;99.90;;;;;;5101953;28;20039;-78
2022/01/13 03:15:37;;;;;;;67.90;19.70;;;5.40;99.90;;;;;;5061032;28;20055;-78
2022/01/13 03:18:03;;;;;;;66.90;21.63;;;5.40;99.90;;;;;;5059877;28;20149;-78
2022/01/13 03:20:29;;;;;;;59.53;19.63;;;5.40;99.90;;;;;;5059606;28;20041;-78
2022/01/13 03:22:55;;;;;;;58.67;18.23;;;5.50;99.90;;;;;;5060820;28;20467;-78
2022/01/13 03:25:22;;;;;;;58.87;18.77;;;5.50;99.90;;;;;;5075937;28;20040;-78
2022/01/13 03:27:57;;;;;;;68.27;19.00;;;5.40;99.90;;;;;;5075086;28;20035;-79
2022/01/13 03:30:23;;;;;;;61.60;18.20;;;5.40;99.90;;;;;;5060474;28;20041;-77
2022/01/13 03:32:49;;;;;;;69.27;20.33;;;5.40;99.90;;;;;;5060207;28;20066;-78
2022/01/13 03:35:15;;;;;;;62.43;19.00;;;5.40;99.90;;;;;;5070890;28;20453;-78
2022/01/13 03:37:40;;;;;;;65.17;20.13;;;5.40;99.90;;;;;;5059846;28;20650;-79
2022/01/13 03:40:07;;;;;;;71.37;21.07;;;5.40;99.90;;;;;;5039684;28;20159;-78
2022/01/13 03:42:33;;;;;;;67.50;18.63;;;5.30;99.90;;;;;;5075850;28;20052;-78
2022/01/13 03:45:00;;;;;;;54.87;17.20;;;5.30;99.90;;;;;;5027290;28;20064;-77
2022/01/13 03:47:26;;;;;;;78.20;21.10;;;5.30;99.90;;;;;;5038839;28;20083;-78
2022/01/13 03:49:54;;;;;;;73.90;20.30;;;5.30;99.90;;;;;;5059761;28;20079;-78
2022/01/13 03:52:22;;;;;;;76.90;20.20;;;5.40;99.90;;;;;;5041828;28;20048;-77
2022/01/13 03:54:51;;;;;;;51.87;16.60;;;5.30;99.90;;;;;;5059517;28;20051;-78
2022/01/13 03:57:54;;;;;;;58.67;16.93;;;5.30;99.90;;;;;;5058746;28;20036;-78
2022/01/13 04:01:15;;;;;;;78.63;20.63;;;5.30;99.90;;;;;;5057440;28;20049;-78
2022/01/13 04:03:41;;;;;;;61.97;18.17;;;5.30;99.90;;;;;;5019720;28;20048;-78
2022/01/13 04:06:16;;;;;;;78.33;20.93;;;5.30;99.90;;;;;;5044635;28;20075;-78
2022/01/13 04:08:45;;;;;;;76.90;19.60;;;5.30;99.90;;;;;;5059776;28;20040;-78
2022/01/13 04:11:38;;;;;;;74.67;20.00;;;5.20;99.90;;;;;;5057056;28;20066;-79
2022/01/13 04:14:06;;;;;;;87.93;22.53;;;5.30;99.90;;;;;;5097784;28;20079;-78
2022/01/13 04:16:36;;;;;;;56.70;18.17;;;5.30;99.90;;;;;;5024142;28;20044;-78
2022/01/13 04:19:05;;;;;;;54.80;17.90;;;5.30;99.90;;;;;;5058671;28;20048;-78
2022/01/13 04:21:37;;;;;;;69.63;19.57;;;5.20;99.90;;;;;;5074806;28;20037;-77
2022/01/13 04:24:04;;;;;;;59.05;16.55;;;5.30;99.90;;;;;;5059429;28;20040;-78
2022/01/13 04:26:31;;;;;;;50.30;17.30;;;5.30;99.90;;;;;;5041980;28;20071;-78
2022/01/13 04:29:16;;;;;;;66.60;18.57;;;5.30;99.90;;;;;;5060920;28;20056;-78
2022/01/13 04:31:48;;;;;;;66.30;19.90;;;5.30;99.90;;;;;;5061009;28;20049;-78
2022/01/13 04:34:14;;;;;;;80.03;20.52;;;5.30;99.90;;;;;;5058751;28;20044;-78
2022/01/13 04:36:40;;;;;;;67.10;18.23;;;5.30;99.90;;;;;;5041130;28;20062;-78
2022/01/13 04:39:07;;;;;;;68.27;20.97;;;5.20;99.90;;;;;;5042288;28;20049;-78
2022/01/13 04:41:35;;;;;;;61.27;19.47;;;5.30;99.90;;;;;;5075933;28;20059;-78
2022/01/13 04:44:06;;;;;;;57.83;17.87;;;5.30;99.90;;;;;;5058519;28;20056;-77
2022/01/13 04:46:32;;;;;;;61.57;18.67;;;5.20;99.90;;;;;;5056232;28;20155;-78
2022/01/13 04:48:59;;;;;;;89.87;20.67;;;5.30;99.90;;;;;;5023728;28;20095;-77
2022/01/13 04:51:28;;;;;;;68.73;19.63;;;5.20;99.90;;;;;;5039906;28;20040;-78
2022/01/13 04:53:54;;;;;;;66.40;17.53;;;5.20;99.90;;;;;;5083054;28;20042;-78
2022/01/13 04:56:29;;;;;;;67.40;19.07;;;5.20;99.90;;;;;;5075769;28;20528;-78
2022/01/13 04:58:56;;;;;;;70.53;18.17;;;5.20;99.90;;;;;;5084784;28;20041;-78
2022/01/13 05:01:22;;;;;;;70.23;18.17;;;5.20;99.90;;;;;;5076323;28;20767;-78
2022/01/13 05:03:48;;;;;;;77.00;21.73;;;5.20;99.90;;;;;;5036405;28;20043;-78
2022/01/13 05:06:17;;;;;;;76.37;21.30;;;5.20;99.90;;;;;;5058405;28;20072;-78
2022/01/13 05:08:44;;;;;;;58.83;18.07;;;5.10;99.90;;;;;;5077511;28;20040;-78
2022/01/13 05:11:09;;;;;;;65.70;19.33;;;5.10;99.90;;;;;;5026256;28;20127;-79
2022/01/13 05:13:35;;;;;;;56.30;17.90;;;5.10;99.90;;;;;;5058082;28;20072;-78
2022/01/13 05:16:01;;;;;;;58.87;18.63;;;5.10;99.90;;;;;;5022674;28;20044;-78
2022/01/13 05:21:05;;;;;;;79.10;20.20;;;5.10;99.90;;;;;;5044527;28;20044;-79
2022/01/13 05:23:31;;;;;;;63.53;20.07;;;5.10;99.90;;;;;;5039494;28;20051;-78
2022/01/13 05:25:57;;;;;;;67.43;19.03;;;5.10;99.90;;;;;;5061832;28;20143;-78
2022/01/13 05:28:23;;;;;;;64.37;19.80;;;5.10;99.90;;;;;;5062631;28;20107;-78
2022/01/13 05:30:49;;;;;;;64.53;19.47;;;5.10;99.90;;;;;;5062998;28;20037;-79
2022/01/13 05:33:15;;;;;;;65.67;19.63;;;5.10;99.90;;;;;;5062435;28;20044;-78
2022/01/13 05:35:40;;;;;;;65.53;20.63;;;5.10;99.90;;;;;;5046399;28;20052;-78
2022/01/13 05:38:08;;;;;;;68.70;19.57;;;5.10;99.90;;;;;;5062198;28;20115;-78
2022/01/13 05:40:37;;;;;;;72.17;22.07;;;5.10;99.90;;;;;;5061384;28;20083;-79
2022/01/13 05:43:04;;;;;;;75.53;22.00;;;5.10;99.90;;;;;;5078784;28;20116;-78
2022/01/13 05:45:33;;;;;;;61.67;19.43;;;5.10;99.90;;;;;;5029846;28;20048;-79
2022/01/13 05:48:00;;;;;;;77.77;21.30;;;5.10;99.90;;;;;;5039548;28;20151;-78
2022/01/13 05:50:27;;;;;;;64.17;19.47;;;5.10;99.90;;;;;;5061997;28;20118;-78
2022/01/13 05:52:53;;;;;;;73.50;21.67;;;5.10;99.90;;;;;;5086835;28;20045;-78
2022/01/13 05:55:20;;;;;;;60.90;20.13;;;5.10;99.90;;;;;;5065165;28;20062;-79
2022/01/13 05:57:46;;;;;;;69.83;23.17;;;5.10;99.90;;;;;;5047627;28;20040;-78
2022/01/13 06:00:15;;;;;;;82.47;22.53;;;5.10;99.90;;;;;;5078733;28;20048;-96
2022/01/13 06:02:42;;;;;;;70.20;21.43;;;5.10;99.90;;;;;;5063223;28;20070;-78
2022/01/13 06:05:09;;;;;;;73.30;21.10;;;5.10;99.90;;;;;;5077888;28;20049;-78
2022/01/13 06:07:35;;;;;;;61.83;21.47;;;5.10;99.90;;;;;;5052157;28;20044;-79
2022/01/13 06:10:03;;;;;;;67.80;22.13;;;5.10;99.90;;;;;;5078345;28;20397;-78
2022/01/13 06:12:33;;;;;;;64.97;21.00;;;5.00;99.90;;;;;;5078706;28;20045;-77
2022/01/13 06:15:05;;;;;;;67.03;20.40;;;5.10;99.90;;;;;;5043556;28;20077;-82
2022/01/13 06:17:35;;;;;;;66.43;20.50;;;5.10;99.90;;;;;;5061248;28;20056;-79
2022/01/13 06:20:01;;;;;;;65.03;19.90;;;5.10;99.90;;;;;;5042227;28;20131;-79
2022/01/13 06:22:27;;;;;;;55.60;19.90;;;5.00;99.90;;;;;;5061038;28;20494;-79
2022/01/13 06:24:53;;;;;;;69.90;20.93;;;5.10;99.90;;;;;;5043998;28;20032;-81
2022/01/13 06:27:21;;;;;;;69.20;20.53;;;5.10;99.90;;;;;;5061182;28;20040;-80
2022/01/13 06:29:47;;;;;;;73.93;21.60;;;5.10;99.90;;;;;;5068385;28;20914;-81
2022/01/13 06:32:13;;;;;;;69.97;21.87;;;5.00;99.90;;;;;;5078052;28;20044;-78
2022/01/13 06:34:39;;;;;;;60.80;19.77;;;5.00;99.90;;;;;;5060674;28;20028;-80
2022/01/13 06:37:04;;;;;;;67.47;19.67;;;5.00;99.90;;;;;;5027884;28;20140;-79
2022/01/13 06:39:30;;;;;;;52.73;19.87;;;5.10;99.90;;;;;;5024345;28;20041;-77
2022/01/13 06:41:56;;;;;;;61.43;19.93;;;5.10;99.90;;;;;;5072618;28;20056;-77
2022/01/13 06:44:21;;;;;;;55.40;17.43;;;5.00;99.90;;;;;;5066561;28;20051;-78
2022/01/13 06:46:47;;;;;;;70.90;19.60;;;5.10;99.90;;;;;;5045830;28;20516;-78
2022/01/13 06:49:13;;;;;;;72.40;18.77;;;5.00;99.90;;;;;;5044256;28;20087;-77
2022/01/13 06:51:39;;;;;;;65.50;19.37;;;5.10;99.90;;;;;;5060888;28;20045;-76
2022/01/13 06:54:04;;;;;;;57.13;17.33;;;5.00;99.90;;;;;;5044920;28;20071;-78
2022/01/13 06:56:30;;;;;;;73.47;18.53;;;5.00;99.90;;;;;;5061149;28;20040;-78
2022/01/13 06:58:56;;;;;;;65.00;19.37;;;5.00;99.90;;;;;;5061094;28;20435;-78
2022/01/13 07:01:23;;;;;;;64.30;17.10;;;5.00;99.90;;;;;;5042932;28;20029;-77
2022/01/13 07:03:49;;;;;;;60.50;16.87;;;5.00;99.90;;;;;;5044883;28;20458;-78
2022/01/13 07:06:15;;;;;;;53.67;17.87;;;5.10;99.90;;;;;;5043783;28;20722;-77
2022/01/13 07:08:41;;;;;;;51.67;17.23;;;5.10;99.90;;;;;;5069776;28;20048;-79
2022/01/13 07:11:07;;;;;;;58.67;18.90;;;5.10;99.90;;;;;;5076207;28;20079;-79
2022/01/13 07:13:33;;;;;;;54.47;17.50;;;5.00;99.90;;;;;;5057362;28;20047;-78
2022/01/13 07:16:01;;;;;;;54.17;17.07;;;5.10;99.90;;;;;;5062505;28;20044;-79
2022/01/13 07:18:28;;;;;;;66.60;18.47;;;5.10;99.90;;;;;;5060020;28;20040;-79
2022/01/13 07:20:55;;;;;;;59.97;18.83;;;5.10;99.90;;;;;;5041057;28;20071;-80
2022/01/13 07:23:21;;;;;;;65.37;17.97;;;5.00;99.90;;;;;;5042411;28;20104;-81
2022/01/13 07:25:47;;;;;;;62.67;18.37;;;5.10;99.90;;;;;;5045156;28;20079;-79
2022/01/13 07:28:13;;;;;;;73.47;20.13;;;5.10;99.90;;;;;;5061731;28;20104;-80
2022/01/13 07:30:40;;;;;;;69.87;20.97;;;5.10;99.90;;;;;;5059446;28;20388;-80
2022/01/13 07:33:06;;;;;;;65.00;19.20;;;5.10;99.90;;;;;;5039591;28;20056;-80
2022/01/13 07:35:31;;;;;;;61.27;18.17;;;5.20;99.90;;;;;;5041940;28;20045;-79
2022/01/13 07:37:58;;;;;;;64.07;19.40;;;5.10;99.90;;;;;;5026416;28;20036;-79
2022/01/13 07:40:23;;;;;;;79.27;20.60;;;5.20;99.90;;;;;;5023647;28;20041;-78
2022/01/13 07:42:49;;;;;;;77.57;20.43;;;5.20;99.90;;;;;;5056454;28;20143;-78
2022/01/13 07:45:18;;;;;;;53.57;16.47;;;5.20;99.90;;;;;;5063027;28;20140;-79
2022/01/13 07:47:44;;;;;;;66.43;18.97;;;5.20;99.90;;;;;;5079951;28;20103;-75
2022/01/13 07:50:12;;;;;;;64.67;20.23;;;5.20;99.90;;;;;;5070747;28;20055;-74
2022/01/13 07:52:38;;;;;;;53.73;18.13;;;5.20;99.90;;;;;;5049276;28;20048;-75
2022/01/13 07:55:04;;;;;;;64.37;18.90;;;5.20;99.90;;;;;;5047426;28;20052;-74
2022/01/13 07:57:30;;;;;;;77.00;21.13;;;5.30;99.90;;;;;;5052016;28;20131;-75
2022/01/13 07:59:56;;;;;;;66.00;20.83;;;5.30;99.90;;;;;;5044585;28;20962;-74
2022/01/13 08:02:22;;;;;;;73.03;21.30;;;5.30;99.90;;;;;;5061620;28;20154;-75
2022/01/13 08:04:49;;;;;;;69.27;20.23;;;5.30;99.90;;;;;;5040368;28;20083;-75
2022/01/13 08:07:15;;;;;;;67.47;20.03;;;5.30;99.90;;;;;;5076339;28;20048;-75
2022/01/13 08:09:41;;;;;;;54.77;18.13;;;5.30;99.90;;;;;;5042855;28;20047;-75
2022/01/13 08:12:08;;;;;;;84.87;23.07;;;5.30;99.90;;;;;;5087401;28;20052;-75
2022/01/13 08:14:34;;;;;;;68.37;20.43;;;5.30;99.90;;;;;;5058931;28;20119;-76
2022/01/13 08:17:02;;;;;;;67.60;21.00;;;5.30;99.90;;;;;;5075552;28;20058;-75
2022/01/13 08:19:46;;;;;;;69.40;20.43;;;5.30;99.90;;;;;;5058990;28;20163;-75
2022/01/13 08:22:16;;;;;;;58.27;20.33;;;5.30;99.90;;;;;;5056340;28;20074;-75
2022/01/13 08:24:43;;;;;;;69.20;20.57;;;5.30;99.90;;;;;;5059958;28;20044;-74
2022/01/13 08:27:09;;;;;;;67.10;19.43;;;5.30;99.90;;;;;;5060583;28;20104;-74
2022/01/13 08:29:35;;;;;;;72.80;21.53;;;5.40;99.90;;;;;;5061232;28;20446;-74
2022/01/13 08:32:01;;;;;;;68.37;20.40;;;5.40;99.90;;;;;;5058644;28;20056;-75
2022/01/13 08:34:27;;;;;;;64.87;19.73;;;5.40;99.90;;;;;;5072184;28;20071;-75
2022/01/13 08:36:53;;;;;;;59.53;19.57;;;5.30;99.90;;;;;;5023638;28;20048;-74
2022/01/13 08:39:19;;;;;;;70.33;20.57;;;5.40;99.90;;;;;;5074812;28;20037;-74
2022/01/13 08:41:45;;;;;;;64.03;18.73;;;5.40;99.90;;;;;;5058843;28;20048;-75
2022/01/13 08:44:11;;;;;;;58.40;19.43;;;5.40;99.90;;;;;;5067024;28;20091;-74
2022/01/13 08:46:38;;;;;;;65.17;19.07;;;5.40;99.90;;;;;;5077346;28;20052;-74
2022/01/13 08:49:04;;;;;;;68.97;20.57;;;5.40;99.90;;;;;;5074757;28;20045;-75
2022/01/13 08:51:29;;;;;;;59.47;18.77;;;5.50;99.90;;;;;;5074609;28;20502;-75
2022/01/13 08:53:55;;;;;;;53.03;17.90;;;5.50;99.90;;;;;;5030364;28;20422;-75
2022/01/13 08:56:21;;;;;;;57.33;19.07;;;5.50;99.90;;;;;;5076227;28;20041;-75
2022/01/13 08:58:47;;;;;;;70.83;22.33;;;5.50;99.90;;;;;;5043851;28;20048;-75
2022/01/13 09:01:14;;;;;;;74.57;21.97;;;5.50;99.90;;;;;;5061148;28;20079;-75
2022/01/13 09:03:40;;;;;;;70.20;21.60;;;5.50;99.90;;;;;;5074448;28;20045;-76
2022/01/13 09:06:06;;;;;;;63.43;21.13;;;5.60;99.90;;;;;;5061295;28;20055;-75
2022/01/13 09:08:31;;;;;;;79.47;21.73;;;5.60;99.90;;;;;;5009344;28;20056;-75
2022/01/13 09:10:58;;;;;;;63.33;19.13;;;5.50;99.90;;;;;;5042370;28;20045;-75
2022/01/13 09:13:24;;;;;;;73.33;20.83;;;5.60;99.90;;;;;;5011509;28;20045;-75
2022/01/13 09:16:00;;;;;;;60.83;19.77;;;5.60;99.90;;;;;;5042699;28;20049;-75
2022/01/13 09:19:08;;;;;;;73.93;22.73;;;5.60;99.90;;;;;;5058199;28;20044;-75
2022/01/13 09:21:19;;;;;;;70.67;21.20;;;5.60;99.90;;;;;;5057060;28;20052;-75
2022/01/13 09:23:45;;;;;;;82.17;21.93;;;5.60;99.90;;;;;;5042260;28;20528;-74
2022/01/13 09:26:11;;;;;;;69.03;20.00;;;5.60;99.90;;;;;;5059655;28;20049;-75
2022/01/13 09:28:37;;;;;;;64.17;21.80;;;5.70;99.90;;;;;;5042538;28;20126;-75
2022/01/13 09:31:03;;;;;;;79.33;22.13;;;5.70;99.90;;;;;;5041647;28;20064;-76
2022/01/13 09:33:29;;;;;;;79.87;21.90;;;5.70;99.90;;;;;;5042116;28;20104;-75
2022/01/13 09:35:55;;;;;;;72.23;21.23;;;5.70;99.90;;;;;;5041543;28;20084;-75
2022/01/13 09:38:20;;;;;;;74.10;22.40;;;5.70;99.90;;;;;;5048877;28;20040;-75
2022/01/13 09:40:52;;;;;;;85.07;23.30;;;5.70;99.90;;;;;;5052258;28;20549;-75
2022/01/13 09:43:21;;;;;;;82.47;22.83;;;5.70;99.90;;;;;;5040814;28;20152;-75
2022/01/13 09:45:49;;;;;;;92.33;22.57;;;5.70;99.90;;;;;;5064166;28;20060;-75
2022/01/13 09:48:15;;;;;;;82.40;22.10;;;5.70;99.90;;;;;;5048123;28;20072;-75
2022/01/13 09:50:43;;;;;;;83.63;22.53;;;5.70;99.90;;;;;;5041431;28;20045;-75
2022/01/13 09:53:09;;;;;;;81.83;23.37;;;5.70;99.90;;;;;;5057742;28;20059;-75
2022/01/13 09:55:34;;;;;;;83.40;22.57;;;5.70;99.90;;;;;;5036345;28;20096;-75
2022/01/13 09:58:05;;;;;;;77.90;21.90;;;5.70;99.90;;;;;;5041328;28;20052;-75
2022/01/13 10:00:31;;;;;;;89.40;24.83;;;5.80;99.90;;;;;;5040551;28;20538;-74
2022/01/13 10:02:56;;;;;;;84.27;22.80;;;5.80;99.90;;;;;;5041559;28;20064;-75
2022/01/13 10:05:23;;;;;;;89.23;22.27;;;5.80;99.90;;;;;;5040698;28;20846;-75
2022/01/13 10:07:51;;;;;;;92.07;23.90;;;5.80;99.90;;;;;;5060276;28;20087;-75
2022/01/13 10:10:20;;;;;;;134.73;28.20;;;5.80;99.90;;;;;;5061163;28;20052;-75
2022/01/13 10:12:58;;;;;;;72.03;21.63;;;5.80;99.90;;;;;;5040869;28;20148;-75
2022/01/13 10:18:08;;;;;;;97.43;23.47;;;5.80;99.90;;;;;;5058450;28;20053;-75
2022/01/13 10:20:34;;;;;;;76.40;20.70;;;5.90;99.90;;;;;;5043455;28;20064;-75
2022/01/13 10:23:11;;;;;;;89.90;22.60;;;5.80;99.90;;;;;;5057703;28;20040;-75
2022/01/13 10:25:40;;;;;;;70.00;21.93;;;5.80;99.90;;;;;;5057077;28;20045;-75
2022/01/13 10:28:23;;;;;;;75.93;22.27;;;5.90;99.90;;;;;;5045325;28;20049;-75
2022/01/13 10:30:53;;;;;;;71.73;21.50;;;5.90;99.90;;;;;;5031393;28;20049;-75
2022/01/13 10:33:24;;;;;;;73.00;21.50;;;5.90;99.90;;;;;;5040981;28;20049;-75
2022/01/13 10:35:54;;;;;;;80.45;23.42;;;5.80;99.90;;;;;;5059636;28;20566;-75
2022/01/13 10:38:21;;;;;;;81.93;21.93;;;5.90;99.90;;;;;;5064987;28;20051;-75
2022/01/13 10:40:49;;;;;;;81.63;23.23;;;5.90;99.90;;;;;;5043374;28;20044;-75
2022/01/13 10:43:20;;;;;;;78.33;22.70;;;6.00;99.90;;;;;;5041449;28;20052;-75
2022/01/13 10:45:53;;;;;;;83.57;22.02;;;5.90;99.90;;;;;;5041180;28;20102;-75
2022/01/13 10:48:23;;;;;;;;;;;6.00;99.90;;;;;;5041126;28;20056;-75
2022/01/13 10:50:52;;;;;;;69.93;19.90;;;5.90;99.90;;;;;;5057472;28;19924;-75
2022/01/13 10:53:37;;;;;;;75.67;22.03;;;6.00;99.90;;;;;;5040423;28;20037;-75
2022/01/13 10:56:07;;;;;;;67.93;20.63;;;6.00;99.90;;;;;;5039311;28;20713;-75
2022/01/13 10:58:49;;;;;;;83.73;24.60;;;6.00;99.90;;;;;;5057112;28;20142;-75
2022/01/13 11:01:15;;;;;;;71.35;22.80;;;6.00;99.90;;;;;;5048915;28;20044;-75
2022/01/13 11:03:43;;;;;;;61.27;20.23;;;6.00;99.90;;;;;;5040628;28;20044;-75
2022/01/13 11:06:12;;;;;;;63.17;20.93;;;6.00;99.90;;;;;;5041134;28;20044;-74
2022/01/13 11:08:41;;;;;;;70.93;21.40;;;6.00;99.90;;;;;;5040147;28;20049;-75
2022/01/13 11:11:17;;;;;;;70.60;21.33;;;6.10;99.90;;;;;;5039625;28;20336;-75
2022/01/13 11:13:57;;;;;;;69.83;20.57;;;6.10;99.90;;;;;;5071382;28;20037;-74
2022/01/13 11:16:24;;;;;;;70.63;20.53;;;6.10;99.90;;;;;;5052758;28;20049;-75
2022/01/13 11:18:51;;;;;;;71.00;20.97;;;6.20;99.90;;;;;;5054460;28;20057;-77
2022/01/13 11:21:17;;;;;;;67.13;20.47;;;6.10;99.90;;;;;;5020177;28;20441;-75
2022/01/13 11:23:48;;;;;;;64.93;19.90;;;6.10;99.90;;;;;;5050267;28;20114;-74
2022/01/13 11:26:15;;;;;;;67.13;21.93;;;6.10;99.90;;;;;;5039538;28;20064;-85
2022/01/13 11:28:42;;;;;;;66.07;21.00;;;6.10;99.90;;;;;;5023917;28;20289;-74
2022/01/13 11:31:09;;;;;;;62.50;19.57;;;6.10;99.90;;;;;;5028275;28;20560;-74
2022/01/13 11:33:36;;;;;;;62.33;20.03;;;6.20;99.90;;;;;;5056466;28;20127;-75
2022/01/13 11:36:02;;;;;;;57.20;19.27;;;6.20;99.90;;;;;;5060151;28;20058;-75
2022/01/13 11:38:30;;;;;;;57.40;19.67;;;6.20;99.90;;;;;;5038557;28;20118;-75
2022/01/13 11:41:06;;;;;;;53.60;19.33;;;6.20;99.90;;;;;;5056955;28;20049;-75
2022/01/13 11:43:42;;;;;;;54.13;20.20;;;6.20;99.90;;;;;;5057111;28;20078;-74
2022/01/13 11:46:26;;;;;;;55.30;19.43;;;6.20;99.90;;;;;;5039542;28;20094;-74
2022/01/13 11:49:07;;;;;;;48.53;19.33;;;6.20;99.90;;;;;;5054771;28;20041;-74
2022/01/13 11:51:55;;;;;;;50.57;19.30;;;6.20;99.90;;;;;;5051778;28;20051;-74
2022/01/13 11:54:27;;;;;;;50.00;17.87;;;6.30;99.90;;;;;;5056094;28;20871;-75
2022/01/13 11:57:22;;;;;;;50.15;19.60;;;6.20;99.90;;;;;;5083583;28;20044;-75
2022/01/13 11:59:58;;;;;;;50.03;18.67;;;6.20;99.90;;;;;;5072621;28;20104;-75
2022/01/13 12:02:32;;;;;;;49.47;17.50;;;6.20;99.90;;;;;;5048997;28;20124;-74
2022/01/13 12:04:59;;;;;;;49.67;18.47;;;6.20;99.90;;;;;;5052552;28;20127;-74
2022/01/13 12:07:38;;;;;;;55.10;20.43;;;6.20;99.90;;;;;;5013581;28;20055;-72
2022/01/13 12:10:08;;;;;;;52.80;21.20;;;6.30;99.90;;;;;;5055622;28;20047;-80
2022/01/13 12:12:34;;;;;;;56.63;20.87;;;6.30;99.90;;;;;;5089530;28;20090;-77
2022/01/13 12:15:12;;;;;;;59.63;21.07;;;6.30;99.90;;;;;;5041555;28;20052;-77
2022/01/13 12:17:45;;;;;;;61.00;19.97;;;6.30;99.90;;;;;;5051635;28;20155;-78
2022/01/13 12:20:23;;;;;;;55.53;20.57;;;6.20;99.90;;;;;;5055635;28;20057;-75
2022/01/13 12:23:30;;;;;;;68.57;22.30;;;6.30;99.90;;;;;;5047652;28;20049;-75
2022/01/13 12:25:37;;;;;;;58.90;22.33;;;6.20;99.90;;;;;;5036507;28;20060;-75
2022/01/13 12:28:18;;;;;;;67.73;22.90;;;6.20;99.90;;;;;;5030007;28;20045;-75
2022/01/13 12:30:44;;;;;;;70.33;23.40;;;6.30;99.90;;;;;;5037420;28;20045;-75
2022/01/13 12:33:10;;;;;;;67.03;23.90;;;6.30;99.90;;;;;;5056180;28;20080;-75
2022/01/13 12:35:42;;;;;;;65.80;22.53;;;6.20;99.90;;;;;;5002440;28;20048;-74
2022/01/13 12:38:12;;;;;;;68.28;23.25;;;6.30;99.90;;;;;;5070571;28;20074;-74
2022/01/13 12:40:45;;;;;;;92.07;26.83;;;6.30;99.90;;;;;;5039060;28;20046;-74
2022/01/13 12:46:22;;;;;;;71.77;22.50;;;6.30;99.90;;;;;;5055861;28;20118;-74
2022/01/13 12:48:55;;;;;;;84.93;25.70;;;6.30;99.90;;;;;;5088892;28;20060;-74
2022/01/13 12:51:27;;;;;;;69.67;25.83;;;6.30;99.90;;;;;;5038719;28;20064;-75
2022/01/13 12:53:57;;;;;;;89.27;27.63;;;6.30;99.90;;;;;;5054791;28;20059;-74
2022/01/13 12:56:28;;;;;;;84.97;26.50;;;6.30;99.90;;;;;;5035421;28;20076;-74
2022/01/13 12:59:00;;;;;;;82.60;27.73;;;6.40;99.90;;;;;;5038816;28;20048;-74
2022/01/13 13:01:27;;;;;;;;;;;6.30;99.90;;;;;;5038301;28;20037;-74
2022/01/13 13:04:03;;;;;;;85.23;26.07;;;6.30;99.90;;;;;;5038228;28;19943;-74
2022/01/13 13:06:32;;;;;;;92.87;28.77;;;6.30;99.90;;;;;;5054676;28;20055;-74